AAL4616 KATL-KPBI
Flight info
| Callsign | AAL4616 |
|---|---|
| Flight time | 1h 22m |
| Altitude | 39000 |
| Route | SMLTZ3 WALET ZPLEN VUUDU1 |
| Aircraft | A20N/M-SDE2E3FGHIRWXY/LB1 |
Departure
| Time | 2026-05-07 23:43 |
|---|---|
| Airport | Hartsfield Jackson Atlanta International Airport (KATL) |
Arrival
| Time | 2026-05-08 01:05 |
|---|---|
| Airport | Palm Beach International Airport (KPBI) |
| Time | Latitude | Longitude | Altitude | Speed | Heading |
|---|---|---|---|---|---|
| 2026-05-07 23:15 | 33.64252 | -84.42881 | 1020 ft | 0 kts | 287° |
| 2026-05-07 23:31 | 33.64251 | -84.42879 | 1019 ft | 2 kts | 287° |
| 2026-05-07 23:31 | 33.64249 | -84.42871 | 1019 ft | 2 kts | 289° |
| 2026-05-07 23:32 | 33.64245 | -84.42858 | 1019 ft | 2 kts | 290° |
| 2026-05-07 23:32 | 33.64241 | -84.42844 | 1018 ft | 2 kts | 286° |
| 2026-05-07 23:32 | 33.64239 | -84.42825 | 1017 ft | 2 kts | 248° |
| 2026-05-07 23:32 | 33.64250 | -84.42810 | 1017 ft | 2 kts | 196° |
| 2026-05-07 23:33 | 33.64264 | -84.42807 | 1018 ft | 1 kts | 184° |
| 2026-05-07 23:33 | 33.64270 | -84.42806 | 1018 ft | 1 kts | 180° |
| 2026-05-07 23:34 | 33.64249 | -84.42807 | 1017 ft | 7 kts | 181° |
| 2026-05-07 23:35 | 33.64199 | -84.42808 | 1015 ft | 14 kts | 180° |
| 2026-05-07 23:35 | 33.64012 | -84.42809 | 1010 ft | 25 kts | 182° |
| 2026-05-07 23:35 | 33.63872 | -84.42808 | 1009 ft | 6 kts | 179° |
| 2026-05-07 23:35 | 33.63871 | -84.42808 | 1009 ft | 0 kts | 179° |
| 2026-05-07 23:36 | 33.63868 | -84.42808 | 1009 ft | 2 kts | 179° |
| 2026-05-07 23:36 | 33.63817 | -84.42808 | 1008 ft | 13 kts | 180° |
| 2026-05-07 23:36 | 33.63744 | -84.42808 | 1007 ft | 18 kts | 180° |
| 2026-05-07 23:36 | 33.63659 | -84.42739 | 1008 ft | 15 kts | 96° |
| 2026-05-07 23:37 | 33.63650 | -84.42600 | 1008 ft | 19 kts | 92° |
| 2026-05-07 23:37 | 33.63653 | -84.42417 | 1005 ft | 25 kts | 90° |
| 2026-05-07 23:37 | 33.63659 | -84.42188 | 1005 ft | 29 kts | 86° |
| 2026-05-07 23:37 | 33.63656 | -84.41926 | 1001 ft | 34 kts | 90° |
| 2026-05-07 23:38 | 33.63662 | -84.41629 | 992 ft | 37 kts | 81° |
| 2026-05-07 23:38 | 33.63656 | -84.41397 | 987 ft | 19 kts | 93° |
| 2026-05-07 23:38 | 33.63654 | -84.41218 | 988 ft | 23 kts | 89° |
| 2026-05-07 23:38 | 33.63655 | -84.41081 | 990 ft | 17 kts | 90° |
| 2026-05-07 23:39 | 33.63640 | -84.40924 | 993 ft | 21 kts | 132° |
| 2026-05-07 23:39 | 33.63579 | -84.40910 | 989 ft | 0 kts | 178° |
| 2026-05-07 23:40 | 33.63577 | -84.40910 | 992 ft | 2 kts | 178° |
| 2026-05-07 23:40 | 33.63536 | -84.40909 | 991 ft | 10 kts | 178° |
| 2026-05-07 23:40 | 33.63472 | -84.40964 | 989 ft | 14 kts | 264° |
| 2026-05-07 23:41 | 33.63471 | -84.41009 | 988 ft | 0 kts | 270° |
| 2026-05-07 23:42 | 33.63471 | -84.41022 | 988 ft | 4 kts | 270° |
| 2026-05-07 23:42 | 33.63473 | -84.41243 | 989 ft | 60 kts | 271° |
| 2026-05-07 23:42 | 33.63473 | -84.42008 | 999 ft | 119 kts | 270° |
| 2026-05-07 23:43 | 33.63490 | -84.43190 | 1046 ft | 161 kts | 274° |
| 2026-05-07 23:43 | 33.63478 | -84.44608 | 1365 ft | 179 kts | 272° |
| 2026-05-07 23:43 | 33.63447 | -84.46106 | 2022 ft | 179 kts | 272° |
| 2026-05-07 23:43 | 33.63423 | -84.47533 | 2884 ft | 170 kts | 272° |
| 2026-05-07 23:44 | 33.63400 | -84.49029 | 3233 ft | 188 kts | 272° |
| 2026-05-07 23:44 | 33.63389 | -84.50689 | 3566 ft | 211 kts | 271° |
| 2026-05-07 23:44 | 33.63387 | -84.52541 | 3962 ft | 238 kts | 271° |
| 2026-05-07 23:44 | 33.63389 | -84.54636 | 4589 ft | 260 kts | 271° |
| 2026-05-07 23:45 | 33.63409 | -84.56778 | 5905 ft | 251 kts | 271° |
| 2026-05-07 23:45 | 33.63418 | -84.58849 | 7255 ft | 246 kts | 270° |
| 2026-05-07 23:45 | 33.63424 | -84.60889 | 8498 ft | 243 kts | 270° |
| 2026-05-07 23:45 | 33.63410 | -84.62907 | 9696 ft | 242 kts | 268° |
| 2026-05-07 23:46 | 33.63053 | -84.64897 | 10684 ft | 250 kts | 250° |
| 2026-05-07 23:46 | 33.62016 | -84.66625 | 11699 ft | 264 kts | 231° |
| 2026-05-07 23:46 | 33.60422 | -84.67835 | 12759 ft | 280 kts | 217° |
| 2026-05-07 23:46 | 33.58650 | -84.68769 | 13472 ft | 286 kts | 213° |
| 2026-05-07 23:47 | 33.56600 | -84.69348 | 14241 ft | 312 kts | 197° |
| 2026-05-07 23:47 | 33.54363 | -84.69112 | 15186 ft | 333 kts | 181° |
| 2026-05-07 23:47 | 33.52102 | -84.68575 | 16135 ft | 330 kts | 184° |
| 2026-05-07 23:47 | 33.49843 | -84.68148 | 17025 ft | 329 kts | 186° |
| 2026-05-07 23:48 | 33.47570 | -84.67766 | 17903 ft | 330 kts | 186° |
| 2026-05-07 23:48 | 33.45295 | -84.67380 | 18669 ft | 333 kts | 186° |
| 2026-05-07 23:48 | 33.42969 | -84.66757 | 19296 ft | 356 kts | 173° |
| 2026-05-07 23:48 | 33.40721 | -84.65280 | 19955 ft | 385 kts | 153° |
| 2026-05-07 23:49 | 33.38717 | -84.63034 | 20515 ft | 402 kts | 145° |
| 2026-05-07 23:49 | 33.36689 | -84.60614 | 20707 ft | 422 kts | 144° |
| 2026-05-07 23:49 | 33.34596 | -84.58112 | 20902 ft | 439 kts | 144° |
| 2026-05-07 23:49 | 33.32391 | -84.55486 | 21149 ft | 454 kts | 144° |
| 2026-05-07 23:50 | 33.30140 | -84.52808 | 21728 ft | 458 kts | 144° |
| 2026-05-07 23:50 | 33.27870 | -84.50112 | 22408 ft | 460 kts | 144° |
| 2026-05-07 23:50 | 33.25588 | -84.47414 | 23056 ft | 464 kts | 144° |
| 2026-05-07 23:50 | 33.23278 | -84.44692 | 23654 ft | 468 kts | 144° |
| 2026-05-07 23:51 | 33.20954 | -84.41960 | 24138 ft | 472 kts | 144° |
| 2026-05-07 23:51 | 33.18600 | -84.39197 | 24656 ft | 476 kts | 144° |
| 2026-05-07 23:51 | 33.16235 | -84.36421 | 25141 ft | 479 kts | 144° |
| 2026-05-07 23:51 | 33.13849 | -84.33621 | 25596 ft | 484 kts | 144° |
| 2026-05-07 23:52 | 33.11444 | -84.30803 | 26061 ft | 487 kts | 144° |
| 2026-05-07 23:52 | 33.09005 | -84.27948 | 26531 ft | 491 kts | 144° |
| 2026-05-07 23:52 | 33.06557 | -84.25084 | 26981 ft | 495 kts | 144° |
| 2026-05-07 23:52 | 33.04088 | -84.22198 | 27410 ft | 498 kts | 144° |
| 2026-05-07 23:53 | 33.01541 | -84.19424 | 27854 ft | 493 kts | 152° |
| 2026-05-07 23:53 | 32.98722 | -84.17172 | 28273 ft | 482 kts | 162° |
| 2026-05-07 23:53 | 32.95719 | -84.15516 | 28692 ft | 471 kts | 171° |
| 2026-05-07 23:53 | 32.92634 | -84.14254 | 29092 ft | 471 kts | 173° |
| 2026-05-07 23:54 | 32.89585 | -84.13014 | 29475 ft | 475 kts | 173° |
| 2026-05-07 23:54 | 32.86446 | -84.11730 | 29874 ft | 478 kts | 173° |
| 2026-05-07 23:54 | 32.83314 | -84.10444 | 30239 ft | 481 kts | 173° |
| 2026-05-07 23:54 | 32.80098 | -84.09120 | 30624 ft | 483 kts | 173° |
| 2026-05-07 23:55 | 32.76957 | -84.07828 | 31005 ft | 485 kts | 173° |
| 2026-05-07 23:55 | 32.73780 | -84.06522 | 31429 ft | 485 kts | 173° |
| 2026-05-07 23:55 | 32.70588 | -84.05209 | 31895 ft | 484 kts | 173° |
| 2026-05-07 23:55 | 32.67415 | -84.03905 | 32399 ft | 482 kts | 173° |
| 2026-05-07 23:56 | 32.64252 | -84.02607 | 32911 ft | 480 kts | 173° |
| 2026-05-07 23:56 | 32.61104 | -84.01317 | 33426 ft | 478 kts | 173° |
| 2026-05-07 23:56 | 32.57976 | -84.00038 | 33908 ft | 476 kts | 173° |
| 2026-05-07 23:56 | 32.54844 | -83.98758 | 34323 ft | 474 kts | 173° |
| 2026-05-07 23:57 | 32.51724 | -83.97485 | 34715 ft | 473 kts | 173° |
| 2026-05-07 23:57 | 32.48616 | -83.96217 | 35079 ft | 472 kts | 174° |
| 2026-05-07 23:57 | 32.45507 | -83.94949 | 35432 ft | 471 kts | 174° |
| 2026-05-07 23:57 | 32.42404 | -83.93686 | 35780 ft | 470 kts | 174° |
| 2026-05-07 23:58 | 32.39317 | -83.92429 | 36130 ft | 469 kts | 174° |
| 2026-05-07 23:58 | 32.36240 | -83.91177 | 36468 ft | 468 kts | 174° |
| 2026-05-07 23:58 | 32.33158 | -83.89996 | 36806 ft | 463 kts | 176° |
| 2026-05-07 23:58 | 32.30120 | -83.88919 | 37105 ft | 461 kts | 176° |
| 2026-05-07 23:59 | 32.27036 | -83.87845 | 37398 ft | 461 kts | 176° |
| 2026-05-07 23:59 | 32.24004 | -83.86782 | 37680 ft | 460 kts | 176° |
| 2026-05-07 23:59 | 32.20935 | -83.85697 | 37959 ft | 460 kts | 176° |
| 2026-05-07 23:59 | 32.17872 | -83.84606 | 38226 ft | 460 kts | 176° |
| 2026-05-08 00:00 | 32.14802 | -83.83510 | 38487 ft | 460 kts | 176° |
| 2026-05-08 00:00 | 32.11745 | -83.82417 | 38722 ft | 459 kts | 176° |
| 2026-05-08 00:00 | 32.08689 | -83.81325 | 38899 ft | 460 kts | 176° |
| 2026-05-08 00:00 | 32.05622 | -83.80230 | 38946 ft | 459 kts | 176° |
| 2026-05-08 00:01 | 31.99511 | -83.78049 | 38951 ft | 458 kts | 176° |
| 2026-05-08 00:01 | 31.93405 | -83.75875 | 38954 ft | 459 kts | 176° |
| 2026-05-08 00:02 | 31.87293 | -83.73702 | 38950 ft | 459 kts | 175° |
| 2026-05-08 00:02 | 31.81182 | -83.71531 | 38953 ft | 459 kts | 175° |
| 2026-05-08 00:03 | 31.75068 | -83.69362 | 38953 ft | 459 kts | 175° |
| 2026-05-08 00:03 | 31.68949 | -83.67195 | 38963 ft | 459 kts | 175° |
| 2026-05-08 00:04 | 31.62876 | -83.64905 | 38969 ft | 462 kts | 174° |
| 2026-05-08 00:04 | 31.56771 | -83.62527 | 38980 ft | 463 kts | 173° |
| 2026-05-08 00:05 | 31.50652 | -83.60170 | 38973 ft | 463 kts | 173° |
| 2026-05-08 00:05 | 31.44534 | -83.57828 | 38985 ft | 463 kts | 173° |
| 2026-05-08 00:06 | 31.38402 | -83.55484 | 38978 ft | 463 kts | 173° |
| 2026-05-08 00:06 | 31.32280 | -83.53147 | 38977 ft | 463 kts | 173° |
| 2026-05-08 00:07 | 31.26151 | -83.50811 | 38969 ft | 463 kts | 173° |
| 2026-05-08 00:07 | 31.20021 | -83.48477 | 38967 ft | 463 kts | 173° |
| 2026-05-08 00:08 | 31.13920 | -83.46158 | 38963 ft | 464 kts | 173° |
| 2026-05-08 00:08 | 31.07786 | -83.43829 | 38959 ft | 464 kts | 173° |
| 2026-05-08 00:09 | 31.01603 | -83.41485 | 38964 ft | 464 kts | 173° |
| 2026-05-08 00:09 | 30.95488 | -83.39170 | 38965 ft | 465 kts | 173° |
| 2026-05-08 00:10 | 30.89324 | -83.36838 | 38957 ft | 465 kts | 172° |
| 2026-05-08 00:10 | 30.83158 | -83.34510 | 38953 ft | 465 kts | 172° |
| 2026-05-08 00:11 | 30.77036 | -83.32201 | 38959 ft | 465 kts | 172° |
| 2026-05-08 00:11 | 30.70876 | -83.29799 | 38960 ft | 470 kts | 168° |
| 2026-05-08 00:12 | 30.64871 | -83.26635 | 38957 ft | 475 kts | 165° |
| 2026-05-08 00:12 | 30.58876 | -83.23390 | 38963 ft | 475 kts | 165° |
| 2026-05-08 00:13 | 30.52878 | -83.20161 | 38962 ft | 475 kts | 165° |
| 2026-05-08 00:13 | 30.46881 | -83.16940 | 38986 ft | 475 kts | 164° |
| 2026-05-08 00:14 | 30.40877 | -83.13720 | 38984 ft | 475 kts | 164° |
| 2026-05-08 00:14 | 30.34935 | -83.10537 | 38985 ft | 475 kts | 164° |
| 2026-05-08 00:15 | 30.29398 | -83.07575 | 38979 ft | 474 kts | 164° |
| 2026-05-08 00:15 | 30.23403 | -83.04372 | 38982 ft | 474 kts | 164° |
| 2026-05-08 00:16 | 30.17418 | -83.01179 | 38982 ft | 474 kts | 164° |
| 2026-05-08 00:16 | 30.11427 | -82.97987 | 38980 ft | 474 kts | 164° |
| 2026-05-08 00:17 | 30.05479 | -82.94822 | 38979 ft | 474 kts | 164° |
| 2026-05-08 00:17 | 29.99490 | -82.91640 | 38979 ft | 474 kts | 164° |
| 2026-05-08 00:18 | 29.93501 | -82.88462 | 38979 ft | 474 kts | 163° |
| 2026-05-08 00:18 | 29.87543 | -82.85305 | 38981 ft | 474 kts | 163° |
| 2026-05-08 00:19 | 29.81538 | -82.82126 | 38980 ft | 475 kts | 163° |
| 2026-05-08 00:19 | 29.75525 | -82.78948 | 38994 ft | 475 kts | 163° |
| 2026-05-08 00:20 | 29.69499 | -82.75766 | 38993 ft | 476 kts | 163° |
| 2026-05-08 00:20 | 29.63476 | -82.72591 | 39004 ft | 476 kts | 163° |
| 2026-05-08 00:21 | 29.57446 | -82.69416 | 39003 ft | 477 kts | 163° |
| 2026-05-08 00:21 | 29.51653 | -82.66371 | 39006 ft | 477 kts | 163° |
| 2026-05-08 00:22 | 29.45604 | -82.63194 | 39006 ft | 478 kts | 163° |
| 2026-05-08 00:22 | 29.39553 | -82.60021 | 39014 ft | 478 kts | 163° |
| 2026-05-08 00:23 | 29.33513 | -82.56856 | 39002 ft | 475 kts | 163° |
| 2026-05-08 00:23 | 29.28501 | -82.54301 | 39002 ft | 472 kts | 167° |
| 2026-05-08 00:24 | 29.22290 | -82.52153 | 39008 ft | 461 kts | 176° |
| 2026-05-08 00:24 | 29.16073 | -82.50984 | 39008 ft | 457 kts | 179° |
| 2026-05-08 00:25 | 29.09793 | -82.49856 | 39017 ft | 458 kts | 179° |
| 2026-05-08 00:25 | 29.03495 | -82.48713 | 39024 ft | 458 kts | 179° |
| 2026-05-08 00:26 | 28.97233 | -82.47579 | 39027 ft | 458 kts | 179° |
| 2026-05-08 00:26 | 28.90943 | -82.46441 | 39029 ft | 458 kts | 179° |
| 2026-05-08 00:27 | 28.84656 | -82.45305 | 39028 ft | 458 kts | 179° |
| 2026-05-08 00:27 | 28.78353 | -82.44168 | 39029 ft | 458 kts | 179° |
| 2026-05-08 00:28 | 28.72064 | -82.43035 | 39031 ft | 458 kts | 179° |
| 2026-05-08 00:28 | 28.65790 | -82.41906 | 39032 ft | 458 kts | 178° |
| 2026-05-08 00:29 | 28.59485 | -82.40773 | 39038 ft | 459 kts | 178° |
| 2026-05-08 00:29 | 28.53187 | -82.39642 | 39042 ft | 459 kts | 178° |
| 2026-05-08 00:30 | 28.46916 | -82.38517 | 39047 ft | 459 kts | 178° |
| 2026-05-08 00:30 | 28.40601 | -82.37386 | 39049 ft | 459 kts | 178° |
| 2026-05-08 00:31 | 28.34301 | -82.36259 | 39041 ft | 459 kts | 178° |
| 2026-05-08 00:31 | 28.28233 | -82.35175 | 39040 ft | 458 kts | 178° |
| 2026-05-08 00:32 | 28.21926 | -82.34049 | 39038 ft | 458 kts | 178° |
| 2026-05-08 00:32 | 28.15628 | -82.32926 | 39024 ft | 458 kts | 178° |
| 2026-05-08 00:33 | 28.09329 | -82.31805 | 39026 ft | 458 kts | 178° |
| 2026-05-08 00:33 | 28.03116 | -82.30607 | 39027 ft | 461 kts | 173° |
| 2026-05-08 00:34 | 27.96866 | -82.28582 | 39026 ft | 465 kts | 169° |
| 2026-05-08 00:34 | 27.90671 | -82.26472 | 38845 ft | 465 kts | 169° |
| 2026-05-08 00:35 | 27.87563 | -82.25419 | 38362 ft | 467 kts | 169° |
| 2026-05-08 00:35 | 27.84440 | -82.24364 | 37552 ft | 471 kts | 169° |
| 2026-05-08 00:35 | 27.81297 | -82.23303 | 36867 ft | 470 kts | 169° |
| 2026-05-08 00:35 | 27.78168 | -82.22245 | 36086 ft | 471 kts | 169° |
| 2026-05-08 00:36 | 27.75011 | -82.21179 | 35321 ft | 473 kts | 169° |
| 2026-05-08 00:36 | 27.71963 | -82.20152 | 34544 ft | 475 kts | 169° |
| 2026-05-08 00:36 | 27.68798 | -82.19085 | 33682 ft | 478 kts | 169° |
| 2026-05-08 00:36 | 27.65604 | -82.18009 | 32784 ft | 480 kts | 169° |
| 2026-05-08 00:37 | 27.62944 | -82.17113 | 32062 ft | 481 kts | 169° |
| 2026-05-08 00:37 | 27.59987 | -82.16122 | 31188 ft | 484 kts | 169° |
| 2026-05-08 00:37 | 27.56756 | -82.15055 | 30239 ft | 487 kts | 169° |
| 2026-05-08 00:38 | 27.50304 | -82.12934 | 28955 ft | 474 kts | 169° |
| 2026-05-08 00:38 | 27.47155 | -82.11897 | 28313 ft | 468 kts | 169° |
| 2026-05-08 00:38 | 27.44050 | -82.10876 | 27651 ft | 463 kts | 169° |
| 2026-05-08 00:38 | 27.40963 | -82.09863 | 26998 ft | 459 kts | 169° |
| 2026-05-08 00:39 | 27.37913 | -82.08863 | 26301 ft | 456 kts | 169° |
| 2026-05-08 00:39 | 27.34918 | -82.07879 | 25977 ft | 445 kts | 169° |
| 2026-05-08 00:39 | 27.31984 | -82.06907 | 25545 ft | 437 kts | 169° |
| 2026-05-08 00:39 | 27.29103 | -82.05940 | 25299 ft | 426 kts | 169° |
| 2026-05-08 00:40 | 27.26263 | -82.04988 | 25217 ft | 429 kts | 169° |
| 2026-05-08 00:40 | 27.23386 | -82.04028 | 25132 ft | 432 kts | 169° |
| 2026-05-08 00:40 | 27.20513 | -82.03068 | 25049 ft | 430 kts | 169° |
| 2026-05-08 00:40 | 27.17646 | -82.02110 | 24937 ft | 430 kts | 169° |
| 2026-05-08 00:41 | 27.14778 | -82.01152 | 24756 ft | 429 kts | 169° |
| 2026-05-08 00:41 | 27.11943 | -82.00206 | 24577 ft | 427 kts | 169° |
| 2026-05-08 00:41 | 27.09091 | -81.99254 | 24388 ft | 426 kts | 169° |
| 2026-05-08 00:41 | 27.06271 | -81.98239 | 24212 ft | 429 kts | 162° |
| 2026-05-08 00:42 | 27.03631 | -81.96630 | 24030 ft | 436 kts | 149° |
| 2026-05-08 00:42 | 27.01348 | -81.94362 | 23749 ft | 442 kts | 135° |
| 2026-05-08 00:42 | 26.99412 | -81.91741 | 23460 ft | 441 kts | 133° |
| 2026-05-08 00:42 | 26.97476 | -81.89092 | 23182 ft | 437 kts | 133° |
| 2026-05-08 00:43 | 26.95547 | -81.86462 | 22918 ft | 435 kts | 133° |
| 2026-05-08 00:43 | 26.93627 | -81.83854 | 22640 ft | 433 kts | 133° |
| 2026-05-08 00:43 | 26.91708 | -81.81254 | 22367 ft | 431 kts | 133° |
| 2026-05-08 00:43 | 26.89799 | -81.78671 | 22115 ft | 429 kts | 133° |
| 2026-05-08 00:44 | 26.87943 | -81.76163 | 21845 ft | 427 kts | 132° |
| 2026-05-08 00:44 | 26.86055 | -81.73613 | 21575 ft | 424 kts | 133° |
| 2026-05-08 00:44 | 26.84180 | -81.71126 | 21310 ft | 422 kts | 133° |
| 2026-05-08 00:44 | 26.82277 | -81.68638 | 21045 ft | 420 kts | 133° |
| 2026-05-08 00:45 | 26.80375 | -81.66154 | 20780 ft | 418 kts | 133° |
| 2026-05-08 00:45 | 26.78487 | -81.63688 | 20524 ft | 416 kts | 133° |
| 2026-05-08 00:45 | 26.76612 | -81.61235 | 20261 ft | 414 kts | 133° |
| 2026-05-08 00:45 | 26.74741 | -81.58786 | 20016 ft | 412 kts | 133° |
| 2026-05-08 00:46 | 26.72911 | -81.56390 | 19765 ft | 410 kts | 133° |
| 2026-05-08 00:46 | 26.71061 | -81.53970 | 19513 ft | 408 kts | 133° |
| 2026-05-08 00:46 | 26.69312 | -81.51475 | 19254 ft | 407 kts | 122° |
| 2026-05-08 00:46 | 26.68199 | -81.48585 | 19003 ft | 406 kts | 104° |
| 2026-05-08 00:47 | 26.67864 | -81.45454 | 18583 ft | 406 kts | 86° |
| 2026-05-08 00:47 | 26.68317 | -81.42372 | 18093 ft | 400 kts | 72° |
| 2026-05-08 00:47 | 26.69179 | -81.39424 | 17529 ft | 396 kts | 69° |
| 2026-05-08 00:47 | 26.70073 | -81.36533 | 17055 ft | 390 kts | 70° |
| 2026-05-08 00:48 | 26.70894 | -81.33653 | 16589 ft | 385 kts | 71° |
| 2026-05-08 00:48 | 26.71392 | -81.31764 | 16287 ft | 382 kts | 72° |
| 2026-05-08 00:48 | 26.72194 | -81.28530 | 15726 ft | 378 kts | 73° |
| 2026-05-08 00:48 | 26.72855 | -81.25745 | 15304 ft | 375 kts | 74° |
| 2026-05-08 00:49 | 26.73514 | -81.22926 | 14868 ft | 372 kts | 74° |
| 2026-05-08 00:49 | 26.74161 | -81.20148 | 14519 ft | 368 kts | 75° |
| 2026-05-08 00:49 | 26.74807 | -81.17370 | 14167 ft | 368 kts | 75° |
| 2026-05-08 00:49 | 26.75448 | -81.14611 | 13807 ft | 363 kts | 75° |
| 2026-05-08 00:50 | 26.76082 | -81.11884 | 13443 ft | 362 kts | 75° |
| 2026-05-08 00:50 | 26.76715 | -81.09161 | 13099 ft | 360 kts | 75° |
| 2026-05-08 00:50 | 26.77339 | -81.06477 | 12748 ft | 358 kts | 75° |
| 2026-05-08 00:50 | 26.77965 | -81.03779 | 12408 ft | 356 kts | 75° |
| 2026-05-08 00:51 | 26.78541 | -81.01098 | 12068 ft | 354 kts | 80° |
| 2026-05-08 00:51 | 26.78792 | -80.98369 | 11728 ft | 352 kts | 88° |
| 2026-05-08 00:51 | 26.78896 | -80.95675 | 11394 ft | 349 kts | 88° |
| 2026-05-08 00:51 | 26.79010 | -80.92990 | 11236 ft | 338 kts | 88° |
| 2026-05-08 00:52 | 26.79124 | -80.90408 | 11123 ft | 325 kts | 88° |
| 2026-05-08 00:52 | 26.79233 | -80.87919 | 10884 ft | 317 kts | 88° |
| 2026-05-08 00:52 | 26.79340 | -80.85464 | 10496 ft | 314 kts | 88° |
| 2026-05-08 00:52 | 26.79446 | -80.83030 | 10107 ft | 312 kts | 88° |
| 2026-05-08 00:53 | 26.79550 | -80.80613 | 9716 ft | 310 kts | 88° |
| 2026-05-08 00:53 | 26.79643 | -80.78213 | 9304 ft | 307 kts | 90° |
| 2026-05-08 00:53 | 26.79466 | -80.75858 | 8927 ft | 303 kts | 102° |
| 2026-05-08 00:53 | 26.78867 | -80.73619 | 8561 ft | 298 kts | 112° |
| 2026-05-08 00:54 | 26.78135 | -80.71479 | 8205 ft | 294 kts | 111° |
| 2026-05-08 00:54 | 26.77431 | -80.69378 | 7870 ft | 291 kts | 111° |
| 2026-05-08 00:54 | 26.76717 | -80.67228 | 7516 ft | 290 kts | 111° |
| 2026-05-08 00:54 | 26.76025 | -80.65141 | 7186 ft | 289 kts | 110° |
| 2026-05-08 00:55 | 26.75326 | -80.63037 | 6841 ft | 287 kts | 110° |
| 2026-05-08 00:55 | 26.74635 | -80.60956 | 6498 ft | 285 kts | 110° |
| 2026-05-08 00:55 | 26.73947 | -80.58886 | 6151 ft | 282 kts | 110° |
| 2026-05-08 00:55 | 26.73251 | -80.56829 | 5821 ft | 283 kts | 111° |
| 2026-05-08 00:56 | 26.72531 | -80.54773 | 5476 ft | 284 kts | 111° |
| 2026-05-08 00:56 | 26.71816 | -80.52742 | 5164 ft | 283 kts | 112° |
| 2026-05-08 00:56 | 26.71105 | -80.50720 | 5019 ft | 274 kts | 112° |
| 2026-05-08 00:56 | 26.70440 | -80.48775 | 4982 ft | 259 kts | 109° |
| 2026-05-08 00:57 | 26.70027 | -80.46874 | 4889 ft | 242 kts | 99° |
| 2026-05-08 00:57 | 26.69862 | -80.45088 | 4716 ft | 220 kts | 93° |
| 2026-05-08 00:57 | 26.69791 | -80.43492 | 4616 ft | 192 kts | 92° |
| 2026-05-08 00:57 | 26.69730 | -80.42118 | 4475 ft | 165 kts | 93° |
| 2026-05-08 00:58 | 26.69674 | -80.40906 | 4346 ft | 146 kts | 93° |
| 2026-05-08 00:58 | 26.69622 | -80.39777 | 4293 ft | 153 kts | 94° |
| 2026-05-08 00:58 | 26.69568 | -80.38602 | 4222 ft | 151 kts | 93° |
| 2026-05-08 00:58 | 26.69514 | -80.37425 | 4162 ft | 154 kts | 92° |
| 2026-05-08 00:59 | 26.69458 | -80.36212 | 4096 ft | 153 kts | 93° |
| 2026-05-08 00:59 | 26.69404 | -80.35031 | 3989 ft | 153 kts | 92° |
| 2026-05-08 00:59 | 26.69350 | -80.33853 | 3849 ft | 152 kts | 93° |
| 2026-05-08 00:59 | 26.69297 | -80.32686 | 3684 ft | 149 kts | 92° |
| 2026-05-08 01:00 | 26.69244 | -80.31513 | 3524 ft | 151 kts | 92° |
| 2026-05-08 01:00 | 26.69205 | -80.30350 | 3373 ft | 149 kts | 91° |
| 2026-05-08 01:00 | 26.69175 | -80.29191 | 3207 ft | 150 kts | 92° |
| 2026-05-08 01:00 | 26.69109 | -80.28026 | 2995 ft | 149 kts | 94° |
| 2026-05-08 01:01 | 26.69048 | -80.26894 | 2766 ft | 142 kts | 94° |
| 2026-05-08 01:01 | 26.68998 | -80.25820 | 2585 ft | 141 kts | 94° |
| 2026-05-08 01:01 | 26.68956 | -80.24737 | 2439 ft | 140 kts | 92° |
| 2026-05-08 01:01 | 26.68910 | -80.23660 | 2293 ft | 137 kts | 95° |
| 2026-05-08 01:02 | 26.68860 | -80.22597 | 2102 ft | 135 kts | 96° |
| 2026-05-08 01:02 | 26.68791 | -80.21564 | 1920 ft | 133 kts | 96° |
| 2026-05-08 01:02 | 26.68728 | -80.20546 | 1773 ft | 131 kts | 95° |
| 2026-05-08 01:02 | 26.68720 | -80.19494 | 1571 ft | 135 kts | 92° |
| 2026-05-08 01:03 | 26.68712 | -80.18475 | 1335 ft | 128 kts | 96° |
| 2026-05-08 01:03 | 26.68610 | -80.17486 | 1187 ft | 130 kts | 98° |
| 2026-05-08 01:03 | 26.68599 | -80.16469 | 1068 ft | 129 kts | 94° |
| 2026-05-08 01:03 | 26.68549 | -80.15484 | 1004 ft | 127 kts | 97° |
| 2026-05-08 01:04 | 26.68483 | -80.14476 | 838 ft | 130 kts | 97° |
| 2026-05-08 01:04 | 26.68436 | -80.13478 | 579 ft | 128 kts | 96° |
| 2026-05-08 01:04 | 26.68393 | -80.12475 | 435 ft | 131 kts | 96° |
| 2026-05-08 01:04 | 26.68346 | -80.11462 | 193 ft | 128 kts | 97° |
| 2026-05-08 01:05 | 26.68308 | -80.10516 | 95 ft | 127 kts | 97° |
| 2026-05-08 01:05 | 26.68262 | -80.09530 | 29 ft | 121 kts | 97° |
| 2026-05-08 01:05 | 26.68228 | -80.08822 | 24 ft | 78 kts | 91° |
| 2026-05-08 01:05 | 26.68207 | -80.08404 | 29 ft | 43 kts | 91° |
| 2026-05-08 01:06 | 26.68204 | -80.08223 | 30 ft | 26 kts | 88° |
| 2026-05-08 01:06 | 26.68279 | -80.08150 | 32 ft | 9 kts | 334° |
| 2026-05-08 01:06 | 26.68317 | -80.08239 | 31 ft | 20 kts | 271° |
| 2026-05-08 01:06 | 26.68326 | -80.08432 | 27 ft | 24 kts | 272° |
| 2026-05-08 01:07 | 26.68351 | -80.08614 | 27 ft | 14 kts | 317° |
| 2026-05-08 01:07 | 26.68451 | -80.08666 | 25 ft | 20 kts | 324° |
| 2026-05-08 01:07 | 26.68554 | -80.08758 | 24 ft | 6 kts | 335° |
| 2026-05-08 01:07 | 26.68576 | -80.08821 | 27 ft | 13 kts | 247° |
| 2026-05-08 01:08 | 26.68572 | -80.08867 | 25 ft | 0 kts | 276° |